sensor_id;sensor_type;location;lat;lon;timestamp;P1;durP1;ratioP1;P2;durP2;ratioP2
3293;SDS011;1659;51.470;6.770;2023-02-01T00:02:12;30.97;;;11.13;;
3293;SDS011;1659;51.470;6.770;2023-02-01T00:04:38;22.67;;;8.70;;
3293;SDS011;1659;51.470;6.770;2023-02-01T00:07:05;22.30;;;7.80;;
3293;SDS011;1659;51.470;6.770;2023-02-01T00:09:31;25.47;;;8.80;;
3293;SDS011;1659;51.470;6.770;2023-02-01T00:11:58;19.30;;;8.10;;
3293;SDS011;1659;51.470;6.770;2023-02-01T00:14:27;20.80;;;7.30;;
3293;SDS011;1659;51.470;6.770;2023-02-01T00:16:55;19.80;;;9.10;;
3293;SDS011;1659;51.470;6.770;2023-02-01T00:19:21;13.90;;;6.87;;
3293;SDS011;1659;51.470;6.770;2023-02-01T00:21:48;11.07;;;6.07;;
3293;SDS011;1659;51.470;6.770;2023-02-01T00:24:14;15.70;;;6.60;;
3293;SDS011;1659;51.470;6.770;2023-02-01T00:26:41;18.70;;;6.20;;
3293;SDS011;1659;51.470;6.770;2023-02-01T00:29:12;20.37;;;6.40;;
3293;SDS011;1659;51.470;6.770;2023-02-01T00:31:40;16.63;;;7.60;;
3293;SDS011;1659;51.470;6.770;2023-02-01T00:34:09;17.63;;;6.50;;
3293;SDS011;1659;51.470;6.770;2023-02-01T00:36:37;16.80;;;7.57;;
3293;SDS011;1659;51.470;6.770;2023-02-01T00:39:04;17.00;;;7.33;;
3293;SDS011;1659;51.470;6.770;2023-02-01T00:41:30;18.13;;;8.70;;
3293;SDS011;1659;51.470;6.770;2023-02-01T00:43:57;27.53;;;9.47;;
3293;SDS011;1659;51.470;6.770;2023-02-01T00:46:23;33.77;;;11.60;;
3293;SDS011;1659;51.470;6.770;2023-02-01T00:48:50;30.60;;;10.93;;
3293;SDS011;1659;51.470;6.770;2023-02-01T00:51:19;23.13;;;11.13;;
3293;SDS011;1659;51.470;6.770;2023-02-01T00:53:47;22.20;;;9.93;;
3293;SDS011;1659;51.470;6.770;2023-02-01T00:56:15;25.00;;;9.13;;
3293;SDS011;1659;51.470;6.770;2023-02-01T00:58:42;24.60;;;9.53;;
3293;SDS011;1659;51.470;6.770;2023-02-01T01:01:09;18.07;;;8.83;;
3293;SDS011;1659;51.470;6.770;2023-02-01T01:03:38;27.63;;;10.10;;
3293;SDS011;1659;51.470;6.770;2023-02-01T01:06:07;27.77;;;11.40;;
3293;SDS011;1659;51.470;6.770;2023-02-01T01:08:36;21.13;;;10.50;;
3293;SDS011;1659;51.470;6.770;2023-02-01T01:11:04;28.93;;;9.50;;
3293;SDS011;1659;51.470;6.770;2023-02-01T01:13:32;19.23;;;9.20;;
3293;SDS011;1659;51.470;6.770;2023-02-01T01:15:59;25.13;;;9.27;;
3293;SDS011;1659;51.470;6.770;2023-02-01T01:18:27;25.87;;;10.50;;
3293;SDS011;1659;51.470;6.770;2023-02-01T01:20:54;22.13;;;10.70;;
3293;SDS011;1659;51.470;6.770;2023-02-01T01:23:20;23.60;;;10.20;;
3293;SDS011;1659;51.470;6.770;2023-02-01T01:25:48;24.40;;;9.80;;
3293;SDS011;1659;51.470;6.770;2023-02-01T01:28:15;20.50;;;8.50;;
3293;SDS011;1659;51.470;6.770;2023-02-01T01:30:41;32.70;;;10.57;;
3293;SDS011;1659;51.470;6.770;2023-02-01T01:33:08;33.97;;;12.40;;
3293;SDS011;1659;51.470;6.770;2023-02-01T01:35:35;37.03;;;13.40;;
3293;SDS011;1659;51.470;6.770;2023-02-01T01:38:02;28.20;;;13.63;;
3293;SDS011;1659;51.470;6.770;2023-02-01T01:40:30;44.23;;;20.23;;
3293;SDS011;1659;51.470;6.770;2023-02-01T01:42:58;67.20;;;26.20;;
3293;SDS011;1659;51.470;6.770;2023-02-01T01:45:26;51.73;;;20.67;;
3293;SDS011;1659;51.470;6.770;2023-02-01T01:47:54;30.30;;;12.93;;
3293;SDS011;1659;51.470;6.770;2023-02-01T01:50:24;32.53;;;12.90;;
3293;SDS011;1659;51.470;6.770;2023-02-01T01:52:55;26.23;;;10.23;;
3293;SDS011;1659;51.470;6.770;2023-02-01T01:55:27;24.30;;;9.40;;
3293;SDS011;1659;51.470;6.770;2023-02-01T01:58:00;24.40;;;8.67;;
3293;SDS011;1659;51.470;6.770;2023-02-01T02:00:30;18.87;;;7.27;;
3293;SDS011;1659;51.470;6.770;2023-02-01T02:02:59;22.33;;;11.50;;
3293;SDS011;1659;51.470;6.770;2023-02-01T02:05:29;17.63;;;8.40;;
3293;SDS011;1659;51.470;6.770;2023-02-01T02:07:57;23.47;;;9.27;;
3293;SDS011;1659;51.470;6.770;2023-02-01T02:10:25;26.87;;;9.33;;
3293;SDS011;1659;51.470;6.770;2023-02-01T02:13:14;22.03;;;10.27;;
3293;SDS011;1659;51.470;6.770;2023-02-01T02:15:43;39.53;;;10.17;;
3293;SDS011;1659;51.470;6.770;2023-02-01T02:18:15;27.13;;;9.93;;
3293;SDS011;1659;51.470;6.770;2023-02-01T02:26:53;31.60;;;8.13;;
3293;SDS011;1659;51.470;6.770;2023-02-01T02:35:52;16.63;;;8.47;;
3293;SDS011;1659;51.470;6.770;2023-02-01T02:38:27;17.53;;;8.47;;
3293;SDS011;1659;51.470;6.770;2023-02-01T02:41:01;17.03;;;7.23;;
3293;SDS011;1659;51.470;6.770;2023-02-01T02:43:35;20.00;;;6.83;;
3293;SDS011;1659;51.470;6.770;2023-02-01T02:46:27;31.37;;;7.03;;
3293;SDS011;1659;51.470;6.770;2023-02-01T02:49:20;37.63;;;10.50;;
3293;SDS011;1659;51.470;6.770;2023-02-01T02:51:50;36.63;;;13.10;;
3293;SDS011;1659;51.470;6.770;2023-02-01T02:54:40;26.23;;;10.33;;
3293;SDS011;1659;51.470;6.770;2023-02-01T02:57:12;33.67;;;12.60;;
3293;SDS011;1659;51.470;6.770;2023-02-01T02:59:58;28.83;;;11.40;;
3293;SDS011;1659;51.470;6.770;2023-02-01T03:02:45;28.30;;;9.60;;
3293;SDS011;1659;51.470;6.770;2023-02-01T03:05:36;26.33;;;10.20;;
3293;SDS011;1659;51.470;6.770;2023-02-01T03:08:09;22.40;;;9.33;;
3293;SDS011;1659;51.470;6.770;2023-02-01T03:10:40;28.33;;;9.90;;
3293;SDS011;1659;51.470;6.770;2023-02-01T03:13:16;32.27;;;10.27;;
3293;SDS011;1659;51.470;6.770;2023-02-01T03:15:50;27.17;;;7.60;;
3293;SDS011;1659;51.470;6.770;2023-02-01T03:18:21;18.10;;;7.20;;
3293;SDS011;1659;51.470;6.770;2023-02-01T03:20:53;24.17;;;8.33;;
3293;SDS011;1659;51.470;6.770;2023-02-01T03:23:23;24.70;;;11.00;;
3293;SDS011;1659;51.470;6.770;2023-02-01T03:25:55;39.13;;;13.00;;
3293;SDS011;1659;51.470;6.770;2023-02-01T03:28:24;44.03;;;14.97;;
3293;SDS011;1659;51.470;6.770;2023-02-01T03:30:54;34.63;;;7.97;;
3293;SDS011;1659;51.470;6.770;2023-02-01T03:33:21;27.80;;;7.03;;
3293;SDS011;1659;51.470;6.770;2023-02-01T03:35:55;31.93;;;8.50;;
3293;SDS011;1659;51.470;6.770;2023-02-01T03:38:27;16.00;;;6.17;;
3293;SDS011;1659;51.470;6.770;2023-02-01T03:40:58;17.40;;;6.60;;
3293;SDS011;1659;51.470;6.770;2023-02-01T03:43:33;18.17;;;6.20;;
3293;SDS011;1659;51.470;6.770;2023-02-01T03:46:09;13.00;;;5.90;;
3293;SDS011;1659;51.470;6.770;2023-02-01T03:48:38;25.87;;;6.20;;
3293;SDS011;1659;51.470;6.770;2023-02-01T03:51:07;22.47;;;6.57;;
3293;SDS011;1659;51.470;6.770;2023-02-01T03:53:35;13.20;;;5.50;;
3293;SDS011;1659;51.470;6.770;2023-02-01T03:56:04;23.00;;;6.70;;
3293;SDS011;1659;51.470;6.770;2023-02-01T03:58:32;23.33;;;7.03;;
3293;SDS011;1659;51.470;6.770;2023-02-01T04:01:00;30.60;;;7.23;;
3293;SDS011;1659;51.470;6.770;2023-02-01T04:03:27;19.93;;;9.40;;
3293;SDS011;1659;51.470;6.770;2023-02-01T04:05:54;44.33;;;13.20;;
3293;SDS011;1659;51.470;6.770;2023-02-01T04:08:22;28.57;;;8.27;;
3293;SDS011;1659;51.470;6.770;2023-02-01T04:10:49;31.27;;;8.20;;
3293;SDS011;1659;51.470;6.770;2023-02-01T04:13:16;22.40;;;9.50;;
3293;SDS011;1659;51.470;6.770;2023-02-01T04:15:42;19.57;;;7.27;;
3293;SDS011;1659;51.470;6.770;2023-02-01T04:18:10;22.17;;;6.60;;
3293;SDS011;1659;51.470;6.770;2023-02-01T04:20:37;15.70;;;5.63;;
3293;SDS011;1659;51.470;6.770;2023-02-01T04:23:03;16.83;;;5.67;;
3293;SDS011;1659;51.470;6.770;2023-02-01T04:25:31;18.37;;;5.87;;
3293;SDS011;1659;51.470;6.770;2023-02-01T04:27:58;20.43;;;5.90;;
3293;SDS011;1659;51.470;6.770;2023-02-01T04:30:25;23.70;;;6.10;;
3293;SDS011;1659;51.470;6.770;2023-02-01T04:32:51;16.97;;;6.93;;
3293;SDS011;1659;51.470;6.770;2023-02-01T04:35:18;16.60;;;6.40;;
3293;SDS011;1659;51.470;6.770;2023-02-01T04:37:44;15.53;;;5.73;;
3293;SDS011;1659;51.470;6.770;2023-02-01T04:40:11;21.40;;;7.00;;
3293;SDS011;1659;51.470;6.770;2023-02-01T04:42:39;30.10;;;6.03;;
3293;SDS011;1659;51.470;6.770;2023-02-01T04:45:06;24.47;;;7.67;;
3293;SDS011;1659;51.470;6.770;2023-02-01T04:47:33;41.97;;;6.20;;
3293;SDS011;1659;51.470;6.770;2023-02-01T04:50:00;23.00;;;6.03;;
3293;SDS011;1659;51.470;6.770;2023-02-01T04:52:26;22.53;;;5.73;;
3293;SDS011;1659;51.470;6.770;2023-02-01T04:54:53;29.03;;;6.57;;
3293;SDS011;1659;51.470;6.770;2023-02-01T04:57:22;14.77;;;5.00;;
3293;SDS011;1659;51.470;6.770;2023-02-01T04:59:50;17.90;;;6.70;;
3293;SDS011;1659;51.470;6.770;2023-02-01T05:02:17;22.03;;;7.60;;
3293;SDS011;1659;51.470;6.770;2023-02-01T05:04:43;24.13;;;5.70;;
3293;SDS011;1659;51.470;6.770;2023-02-01T05:07:10;27.03;;;7.07;;
3293;SDS011;1659;51.470;6.770;2023-02-01T05:09:36;17.53;;;6.40;;
3293;SDS011;1659;51.470;6.770;2023-02-01T05:12:03;19.93;;;6.23;;
3293;SDS011;1659;51.470;6.770;2023-02-01T05:14:47;27.83;;;7.10;;
3293;SDS011;1659;51.470;6.770;2023-02-01T05:17:15;27.80;;;6.90;;
3293;SDS011;1659;51.470;6.770;2023-02-01T05:19:42;25.57;;;6.30;;
3293;SDS011;1659;51.470;6.770;2023-02-01T05:22:09;29.93;;;6.23;;
3293;SDS011;1659;51.470;6.770;2023-02-01T05:24:35;28.97;;;6.13;;
3293;SDS011;1659;51.470;6.770;2023-02-01T05:27:02;22.67;;;6.33;;
3293;SDS011;1659;51.470;6.770;2023-02-01T05:29:28;12.97;;;6.10;;
3293;SDS011;1659;51.470;6.770;2023-02-01T05:31:55;20.80;;;6.63;;
3293;SDS011;1659;51.470;6.770;2023-02-01T05:34:23;20.27;;;6.77;;
3293;SDS011;1659;51.470;6.770;2023-02-01T05:36:50;23.33;;;6.40;;
3293;SDS011;1659;51.470;6.770;2023-02-01T05:39:16;24.53;;;6.90;;
3293;SDS011;1659;51.470;6.770;2023-02-01T05:41:43;21.07;;;6.33;;
3293;SDS011;1659;51.470;6.770;2023-02-01T05:44:10;32.77;;;5.37;;
3293;SDS011;1659;51.470;6.770;2023-02-01T05:46:37;18.40;;;6.20;;
3293;SDS011;1659;51.470;6.770;2023-02-01T05:49:04;17.17;;;6.23;;
3293;SDS011;1659;51.470;6.770;2023-02-01T05:51:32;17.20;;;6.13;;
3293;SDS011;1659;51.470;6.770;2023-02-01T05:53:59;29.50;;;6.40;;
3293;SDS011;1659;51.470;6.770;2023-02-01T05:56:26;28.77;;;6.73;;
3293;SDS011;1659;51.470;6.770;2023-02-01T05:58:53;18.33;;;6.40;;
3293;SDS011;1659;51.470;6.770;2023-02-01T06:01:19;31.20;;;8.00;;
3293;SDS011;1659;51.470;6.770;2023-02-01T06:03:46;21.63;;;7.13;;
3293;SDS011;1659;51.470;6.770;2023-02-01T06:06:13;32.93;;;7.70;;
3293;SDS011;1659;51.470;6.770;2023-02-01T06:08:41;17.40;;;5.60;;
3293;SDS011;1659;51.470;6.770;2023-02-01T06:11:07;18.10;;;5.97;;
3293;SDS011;1659;51.470;6.770;2023-02-01T06:13:34;28.70;;;6.70;;
3293;SDS011;1659;51.470;6.770;2023-02-01T06:16:04;22.50;;;6.57;;
3293;SDS011;1659;51.470;6.770;2023-02-01T06:18:32;23.47;;;5.83;;
3293;SDS011;1659;51.470;6.770;2023-02-01T06:20:59;24.87;;;5.93;;
3293;SDS011;1659;51.470;6.770;2023-02-01T06:23:26;12.97;;;5.90;;
3293;SDS011;1659;51.470;6.770;2023-02-01T06:25:57;21.80;;;5.70;;
3293;SDS011;1659;51.470;6.770;2023-02-01T06:28:25;16.67;;;6.17;;
3293;SDS011;1659;51.470;6.770;2023-02-01T06:30:52;20.90;;;6.93;;
3293;SDS011;1659;51.470;6.770;2023-02-01T06:33:19;17.53;;;5.80;;
3293;SDS011;1659;51.470;6.770;2023-02-01T06:35:45;22.23;;;7.23;;
3293;SDS011;1659;51.470;6.770;2023-02-01T06:38:13;18.73;;;6.23;;
3293;SDS011;1659;51.470;6.770;2023-02-01T06:40:40;22.87;;;6.67;;
3293;SDS011;1659;51.470;6.770;2023-02-01T06:43:08;18.83;;;6.70;;
3293;SDS011;1659;51.470;6.770;2023-02-01T06:45:35;14.10;;;5.70;;
3293;SDS011;1659;51.470;6.770;2023-02-01T06:48:02;25.10;;;5.20;;
3293;SDS011;1659;51.470;6.770;2023-02-01T06:50:29;33.17;;;7.33;;
3293;SDS011;1659;51.470;6.770;2023-02-01T06:52:55;14.90;;;4.80;;
3293;SDS011;1659;51.470;6.770;2023-02-01T06:55:22;16.60;;;6.27;;
3293;SDS011;1659;51.470;6.770;2023-02-01T06:57:52;19.80;;;6.47;;
3293;SDS011;1659;51.470;6.770;2023-02-01T07:00:21;22.50;;;7.43;;
3293;SDS011;1659;51.470;6.770;2023-02-01T07:02:48;12.30;;;5.87;;
3293;SDS011;1659;51.470;6.770;2023-02-01T07:05:16;32.57;;;6.40;;
3293;SDS011;1659;51.470;6.770;2023-02-01T07:07:42;11.90;;;5.67;;
3293;SDS011;1659;51.470;6.770;2023-02-01T07:10:10;24.67;;;7.00;;
3293;SDS011;1659;51.470;6.770;2023-02-01T07:12:37;29.30;;;6.93;;
3293;SDS011;1659;51.470;6.770;2023-02-01T07:15:04;29.07;;;7.07;;
3293;SDS011;1659;51.470;6.770;2023-02-01T07:17:33;23.03;;;7.03;;
3293;SDS011;1659;51.470;6.770;2023-02-01T07:19:59;27.90;;;6.07;;
3293;SDS011;1659;51.470;6.770;2023-02-01T07:22:26;19.93;;;5.70;;
3293;SDS011;1659;51.470;6.770;2023-02-01T07:25:02;20.97;;;6.33;;
3293;SDS011;1659;51.470;6.770;2023-02-01T07:27:29;30.03;;;5.73;;
3293;SDS011;1659;51.470;6.770;2023-02-01T07:29:55;19.27;;;7.10;;
3293;SDS011;1659;51.470;6.770;2023-02-01T07:32:26;23.80;;;6.57;;
3293;SDS011;1659;51.470;6.770;2023-02-01T07:34:54;23.43;;;6.53;;
3293;SDS011;1659;51.470;6.770;2023-02-01T07:37:21;19.03;;;6.60;;
3293;SDS011;1659;51.470;6.770;2023-02-01T07:39:48;16.73;;;5.97;;
3293;SDS011;1659;51.470;6.770;2023-02-01T07:42:15;24.57;;;7.30;;
3293;SDS011;1659;51.470;6.770;2023-02-01T07:44:42;25.47;;;7.20;;
3293;SDS011;1659;51.470;6.770;2023-02-01T07:47:08;15.03;;;6.13;;
3293;SDS011;1659;51.470;6.770;2023-02-01T07:49:35;29.27;;;8.50;;
3293;SDS011;1659;51.470;6.770;2023-02-01T07:52:03;18.80;;;6.07;;
3293;SDS011;1659;51.470;6.770;2023-02-01T07:54:29;15.80;;;5.70;;
3293;SDS011;1659;51.470;6.770;2023-02-01T07:56:56;19.73;;;6.50;;
3293;SDS011;1659;51.470;6.770;2023-02-01T07:59:23;22.00;;;6.70;;
3293;SDS011;1659;51.470;6.770;2023-02-01T08:01:49;23.10;;;6.43;;
3293;SDS011;1659;51.470;6.770;2023-02-01T08:04:16;27.60;;;6.50;;
3293;SDS011;1659;51.470;6.770;2023-02-01T08:06:42;30.20;;;7.40;;
3293;SDS011;1659;51.470;6.770;2023-02-01T08:09:10;20.07;;;7.07;;
3293;SDS011;1659;51.470;6.770;2023-02-01T08:11:37;21.20;;;5.63;;
3293;SDS011;1659;51.470;6.770;2023-02-01T08:14:03;22.73;;;7.40;;
3293;SDS011;1659;51.470;6.770;2023-02-01T08:16:31;28.60;;;6.33;;
3293;SDS011;1659;51.470;6.770;2023-02-01T08:19:00;23.73;;;6.97;;
3293;SDS011;1659;51.470;6.770;2023-02-01T08:21:27;23.23;;;6.80;;
3293;SDS011;1659;51.470;6.770;2023-02-01T08:24:01;21.60;;;7.10;;
3293;SDS011;1659;51.470;6.770;2023-02-01T08:26:30;22.63;;;6.77;;
3293;SDS011;1659;51.470;6.770;2023-02-01T08:28:57;17.50;;;6.50;;
3293;SDS011;1659;51.470;6.770;2023-02-01T08:31:26;25.60;;;7.10;;
3293;SDS011;1659;51.470;6.770;2023-02-01T08:33:55;22.27;;;6.10;;
3293;SDS011;1659;51.470;6.770;2023-02-01T08:36:23;17.03;;;6.33;;
3293;SDS011;1659;51.470;6.770;2023-02-01T08:38:51;31.10;;;8.50;;
3293;SDS011;1659;51.470;6.770;2023-02-01T08:41:19;31.97;;;6.10;;
3293;SDS011;1659;51.470;6.770;2023-02-01T08:43:48;33.53;;;7.40;;
3293;SDS011;1659;51.470;6.770;2023-02-01T08:46:15;28.43;;;8.97;;
3293;SDS011;1659;51.470;6.770;2023-02-01T08:48:42;16.47;;;6.80;;
3293;SDS011;1659;51.470;6.770;2023-02-01T08:51:09;19.03;;;6.60;;
3293;SDS011;1659;51.470;6.770;2023-02-01T08:53:37;27.43;;;6.33;;
3293;SDS011;1659;51.470;6.770;2023-02-01T08:56:06;41.27;;;7.30;;
3293;SDS011;1659;51.470;6.770;2023-02-01T08:58:33;26.93;;;7.30;;
3293;SDS011;1659;51.470;6.770;2023-02-01T09:01:03;20.10;;;6.00;;
3293;SDS011;1659;51.470;6.770;2023-02-01T09:03:30;32.57;;;7.53;;
3293;SDS011;1659;51.470;6.770;2023-02-01T09:05:59;26.57;;;7.97;;
3293;SDS011;1659;51.470;6.770;2023-02-01T09:08:26;28.03;;;8.97;;
3293;SDS011;1659;51.470;6.770;2023-02-01T09:10:53;26.70;;;7.47;;
3293;SDS011;1659;51.470;6.770;2023-02-01T09:13:19;28.53;;;8.03;;
3293;SDS011;1659;51.470;6.770;2023-02-01T09:15:47;16.20;;;7.60;;
3293;SDS011;1659;51.470;6.770;2023-02-01T09:18:18;27.63;;;9.20;;
3293;SDS011;1659;51.470;6.770;2023-02-01T09:20:44;24.37;;;8.60;;
3293;SDS011;1659;51.470;6.770;2023-02-01T09:23:11;28.53;;;7.53;;
3293;SDS011;1659;51.470;6.770;2023-02-01T09:25:38;31.83;;;8.80;;
3293;SDS011;1659;51.470;6.770;2023-02-01T09:28:04;24.30;;;10.13;;
3293;SDS011;1659;51.470;6.770;2023-02-01T09:30:34;50.00;;;17.20;;
3293;SDS011;1659;51.470;6.770;2023-02-01T09:33:00;52.33;;;20.83;;
3293;SDS011;1659;51.470;6.770;2023-02-01T09:35:28;58.17;;;24.90;;
3293;SDS011;1659;51.470;6.770;2023-02-01T09:37:55;24.50;;;8.50;;
3293;SDS011;1659;51.470;6.770;2023-02-01T09:40:22;29.07;;;8.33;;
3293;SDS011;1659;51.470;6.770;2023-02-01T09:42:56;17.80;;;7.17;;
3293;SDS011;1659;51.470;6.770;2023-02-01T09:45:37;30.17;;;7.90;;
3293;SDS011;1659;51.470;6.770;2023-02-01T09:48:12;27.97;;;8.93;;
3293;SDS011;1659;51.470;6.770;2023-02-01T09:50:43;29.80;;;9.47;;
3293;SDS011;1659;51.470;6.770;2023-02-01T09:53:17;31.27;;;11.00;;
3293;SDS011;1659;51.470;6.770;2023-02-01T09:55:48;42.13;;;11.30;;
3293;SDS011;1659;51.470;6.770;2023-02-01T09:58:18;29.90;;;12.67;;
3293;SDS011;1659;51.470;6.770;2023-02-01T10:00:50;39.27;;;9.87;;
3293;SDS011;1659;51.470;6.770;2023-02-01T10:03:18;24.07;;;8.23;;
3293;SDS011;1659;51.470;6.770;2023-02-01T10:06:01;19.50;;;7.40;;
3293;SDS011;1659;51.470;6.770;2023-02-01T10:08:50;23.50;;;7.30;;
3293;SDS011;1659;51.470;6.770;2023-02-01T10:11:27;27.17;;;6.30;;
3293;SDS011;1659;51.470;6.770;2023-02-01T10:14:15;16.60;;;6.50;;
3293;SDS011;1659;51.470;6.770;2023-02-01T10:17:00;29.93;;;8.93;;
3293;SDS011;1659;51.470;6.770;2023-02-01T10:19:35;25.33;;;8.80;;
3293;SDS011;1659;51.470;6.770;2023-02-01T10:22:14;36.60;;;9.67;;
3293;SDS011;1659;51.470;6.770;2023-02-01T10:24:50;53.60;;;16.47;;
3293;SDS011;1659;51.470;6.770;2023-02-01T10:27:25;32.23;;;9.70;;
3293;SDS011;1659;51.470;6.770;2023-02-01T10:29:59;28.03;;;7.70;;
3293;SDS011;1659;51.470;6.770;2023-02-01T10:32:31;20.40;;;6.70;;
3293;SDS011;1659;51.470;6.770;2023-02-01T10:35:00;24.97;;;7.60;;
3293;SDS011;1659;51.470;6.770;2023-02-01T10:37:30;23.63;;;8.47;;
3293;SDS011;1659;51.470;6.770;2023-02-01T10:39:59;29.60;;;7.83;;
3293;SDS011;1659;51.470;6.770;2023-02-01T10:42:32;21.83;;;7.07;;
3293;SDS011;1659;51.470;6.770;2023-02-01T10:44:59;17.73;;;7.13;;
3293;SDS011;1659;51.470;6.770;2023-02-01T10:47:29;18.10;;;6.50;;
3293;SDS011;1659;51.470;6.770;2023-02-01T10:49:58;24.00;;;8.00;;
3293;SDS011;1659;51.470;6.770;2023-02-01T10:52:35;17.23;;;6.60;;
3293;SDS011;1659;51.470;6.770;2023-02-01T10:57:55;14.73;;;7.20;;
3293;SDS011;1659;51.470;6.770;2023-02-01T11:00:23;32.73;;;9.67;;
3293;SDS011;1659;51.470;6.770;2023-02-01T11:02:50;25.27;;;7.53;;
3293;SDS011;1659;51.470;6.770;2023-02-01T11:05:17;21.47;;;6.70;;
3293;SDS011;1659;51.470;6.770;2023-02-01T11:07:48;28.53;;;8.10;;
3293;SDS011;1659;51.470;6.770;2023-02-01T11:13:02;22.40;;;8.87;;
3293;SDS011;1659;51.470;6.770;2023-02-01T11:15:30;22.03;;;7.47;;
3293;SDS011;1659;51.470;6.770;2023-02-01T11:17:57;27.67;;;8.17;;
3293;SDS011;1659;51.470;6.770;2023-02-01T11:20:41;39.20;;;8.70;;
3293;SDS011;1659;51.470;6.770;2023-02-01T11:23:13;19.73;;;7.00;;
3293;SDS011;1659;51.470;6.770;2023-02-01T11:25:49;28.23;;;7.10;;
3293;SDS011;1659;51.470;6.770;2023-02-01T11:28:18;13.47;;;6.40;;
3293;SDS011;1659;51.470;6.770;2023-02-01T11:30:48;28.70;;;6.93;;
3293;SDS011;1659;51.470;6.770;2023-02-01T11:33:18;25.90;;;7.10;;
3293;SDS011;1659;51.470;6.770;2023-02-01T11:35:48;17.80;;;6.63;;
3293;SDS011;1659;51.470;6.770;2023-02-01T11:38:21;18.20;;;8.20;;
3293;SDS011;1659;51.470;6.770;2023-02-01T11:41:10;27.30;;;7.30;;
3293;SDS011;1659;51.470;6.770;2023-02-01T11:43:50;27.43;;;8.30;;
3293;SDS011;1659;51.470;6.770;2023-02-01T11:46:18;30.23;;;12.10;;
3293;SDS011;1659;51.470;6.770;2023-02-01T11:48:50;24.43;;;7.03;;
3293;SDS011;1659;51.470;6.770;2023-02-01T11:51:25;23.57;;;7.50;;
3293;SDS011;1659;51.470;6.770;2023-02-01T11:54:10;29.50;;;7.97;;
3293;SDS011;1659;51.470;6.770;2023-02-01T11:56:48;27.53;;;8.23;;
3293;SDS011;1659;51.470;6.770;2023-02-01T11:59:31;19.10;;;7.10;;
3293;SDS011;1659;51.470;6.770;2023-02-01T12:02:11;26.93;;;9.90;;
3293;SDS011;1659;51.470;6.770;2023-02-01T12:05:15;35.00;;;8.67;;
3293;SDS011;1659;51.470;6.770;2023-02-01T12:11:16;19.63;;;7.47;;
3293;SDS011;1659;51.470;6.770;2023-02-01T12:13:55;19.53;;;8.23;;
3293;SDS011;1659;51.470;6.770;2023-02-01T12:16:31;20.60;;;7.70;;
3293;SDS011;1659;51.470;6.770;2023-02-01T12:19:17;16.33;;;6.77;;
3293;SDS011;1659;51.470;6.770;2023-02-01T12:21:57;17.20;;;6.50;;
3293;SDS011;1659;51.470;6.770;2023-02-01T12:24:45;13.03;;;5.40;;
3293;SDS011;1659;51.470;6.770;2023-02-01T12:27:38;24.43;;;6.00;;
3293;SDS011;1659;51.470;6.770;2023-02-01T12:33:21;15.60;;;5.77;;
3293;SDS011;1659;51.470;6.770;2023-02-01T12:36:01;11.80;;;5.10;;
3293;SDS011;1659;51.470;6.770;2023-02-01T12:38:41;19.07;;;5.40;;
3293;SDS011;1659;51.470;6.770;2023-02-01T12:41:17;17.53;;;4.87;;
3293;SDS011;1659;51.470;6.770;2023-02-01T12:43:56;11.80;;;4.90;;
3293;SDS011;1659;51.470;6.770;2023-02-01T12:46:26;23.60;;;4.83;;
3293;SDS011;1659;51.470;6.770;2023-02-01T12:48:59;13.43;;;4.60;;
3293;SDS011;1659;51.470;6.770;2023-02-01T12:51:31;16.03;;;5.60;;
3293;SDS011;1659;51.470;6.770;2023-02-01T12:54:01;15.13;;;4.43;;
3293;SDS011;1659;51.470;6.770;2023-02-01T12:56:34;13.93;;;4.57;;
3293;SDS011;1659;51.470;6.770;2023-02-01T12:59:10;14.07;;;5.27;;
3293;SDS011;1659;51.470;6.770;2023-02-01T13:01:46;10.43;;;4.80;;
3293;SDS011;1659;51.470;6.770;2023-02-01T13:04:23;18.83;;;5.17;;
3293;SDS011;1659;51.470;6.770;2023-02-01T13:06:56;15.30;;;4.50;;
3293;SDS011;1659;51.470;6.770;2023-02-01T13:09:30;9.70;;;5.03;;
3293;SDS011;1659;51.470;6.770;2023-02-01T13:12:08;26.20;;;5.30;;
3293;SDS011;1659;51.470;6.770;2023-02-01T13:14:42;22.67;;;5.53;;
3293;SDS011;1659;51.470;6.770;2023-02-01T13:17:14;19.70;;;5.13;;
3293;SDS011;1659;51.470;6.770;2023-02-01T13:19:46;10.33;;;4.53;;
3293;SDS011;1659;51.470;6.770;2023-02-01T13:22:17;13.30;;;5.47;;
3293;SDS011;1659;51.470;6.770;2023-02-01T13:24:48;25.30;;;5.23;;
3293;SDS011;1659;51.470;6.770;2023-02-01T13:27:18;14.03;;;4.10;;
3293;SDS011;1659;51.470;6.770;2023-02-01T13:29:48;20.50;;;4.87;;
3293;SDS011;1659;51.470;6.770;2023-02-01T13:32:28;12.20;;;4.73;;
3293;SDS011;1659;51.470;6.770;2023-02-01T13:35:21;19.03;;;4.40;;
3293;SDS011;1659;51.470;6.770;2023-02-01T13:38:09;17.40;;;5.60;;
3293;SDS011;1659;51.470;6.770;2023-02-01T13:41:05;13.83;;;4.60;;
3293;SDS011;1659;51.470;6.770;2023-02-01T13:43:39;21.47;;;6.77;;
3293;SDS011;1659;51.470;6.770;2023-02-01T13:46:11;13.43;;;4.43;;
3293;SDS011;1659;51.470;6.770;2023-02-01T13:48:40;16.03;;;4.20;;
3293;SDS011;1659;51.470;6.770;2023-02-01T13:51:13;20.30;;;5.10;;
3293;SDS011;1659;51.470;6.770;2023-02-01T13:53:44;17.70;;;5.37;;
3293;SDS011;1659;51.470;6.770;2023-02-01T13:56:13;8.03;;;4.60;;
3293;SDS011;1659;51.470;6.770;2023-02-01T13:58:43;17.73;;;5.00;;
3293;SDS011;1659;51.470;6.770;2023-02-01T14:07:22;16.40;;;5.17;;
3293;SDS011;1659;51.470;6.770;2023-02-01T14:09:49;17.53;;;4.50;;
3293;SDS011;1659;51.470;6.770;2023-02-01T14:15:24;12.33;;;5.20;;
3293;SDS011;1659;51.470;6.770;2023-02-01T14:17:53;17.80;;;4.57;;
3293;SDS011;1659;51.470;6.770;2023-02-01T14:23:21;13.80;;;4.50;;
3293;SDS011;1659;51.470;6.770;2023-02-01T14:26:01;7.70;;;4.77;;
3293;SDS011;1659;51.470;6.770;2023-02-01T14:28:34;20.23;;;4.50;;
3293;SDS011;1659;51.470;6.770;2023-02-01T14:31:13;12.80;;;4.87;;
3293;SDS011;1659;51.470;6.770;2023-02-01T14:33:44;12.87;;;4.40;;
3293;SDS011;1659;51.470;6.770;2023-02-01T14:36:12;11.33;;;4.20;;
3293;SDS011;1659;51.470;6.770;2023-02-01T14:38:46;18.77;;;4.23;;
3293;SDS011;1659;51.470;6.770;2023-02-01T14:41:25;16.63;;;4.83;;
3293;SDS011;1659;51.470;6.770;2023-02-01T14:47:09;14.80;;;5.00;;
3293;SDS011;1659;51.470;6.770;2023-02-01T14:53:11;12.30;;;4.90;;
3293;SDS011;1659;51.470;6.770;2023-02-01T14:55:44;12.97;;;4.83;;
3293;SDS011;1659;51.470;6.770;2023-02-01T14:58:14;11.97;;;5.40;;
3293;SDS011;1659;51.470;6.770;2023-02-01T15:00:47;12.33;;;4.47;;
3293;SDS011;1659;51.470;6.770;2023-02-01T15:03:21;9.83;;;4.70;;
3293;SDS011;1659;51.470;6.770;2023-02-01T15:05:58;12.43;;;4.70;;
3293;SDS011;1659;51.470;6.770;2023-02-01T15:08:26;16.23;;;4.23;;
3293;SDS011;1659;51.470;6.770;2023-02-01T15:10:56;15.67;;;4.13;;
3293;SDS011;1659;51.470;6.770;2023-02-01T15:13:27;19.00;;;4.33;;
3293;SDS011;1659;51.470;6.770;2023-02-01T15:16:01;24.27;;;5.07;;
3293;SDS011;1659;51.470;6.770;2023-02-01T15:18:29;19.03;;;5.23;;
3293;SDS011;1659;51.470;6.770;2023-02-01T15:20:58;14.63;;;5.23;;
3293;SDS011;1659;51.470;6.770;2023-02-01T15:23:26;15.50;;;4.50;;
3293;SDS011;1659;51.470;6.770;2023-02-01T15:25:53;17.50;;;5.33;;
3293;SDS011;1659;51.470;6.770;2023-02-01T15:28:20;20.03;;;5.57;;
3293;SDS011;1659;51.470;6.770;2023-02-01T15:30:52;15.87;;;5.23;;
3293;SDS011;1659;51.470;6.770;2023-02-01T15:33:20;11.57;;;4.67;;
3293;SDS011;1659;51.470;6.770;2023-02-01T15:35:48;20.37;;;5.07;;
3293;SDS011;1659;51.470;6.770;2023-02-01T15:38:30;12.80;;;4.70;;
3293;SDS011;1659;51.470;6.770;2023-02-01T15:41:02;16.30;;;5.87;;
3293;SDS011;1659;51.470;6.770;2023-02-01T15:43:32;12.17;;;4.40;;
3293;SDS011;1659;51.470;6.770;2023-02-01T15:46:02;10.87;;;5.33;;
3293;SDS011;1659;51.470;6.770;2023-02-01T15:48:35;21.47;;;4.93;;
3293;SDS011;1659;51.470;6.770;2023-02-01T15:51:04;17.93;;;5.30;;
3293;SDS011;1659;51.470;6.770;2023-02-01T15:53:32;15.17;;;4.63;;
3293;SDS011;1659;51.470;6.770;2023-02-01T15:56:00;13.40;;;5.93;;
3293;SDS011;1659;51.470;6.770;2023-02-01T15:58:29;13.33;;;5.27;;
3293;SDS011;1659;51.470;6.770;2023-02-01T16:00:57;19.87;;;5.70;;
3293;SDS011;1659;51.470;6.770;2023-02-01T16:03:28;16.33;;;5.33;;
3293;SDS011;1659;51.470;6.770;2023-02-01T16:06:01;22.47;;;5.60;;